Time;durP1;ratioP1;P1;durP2;ratioP2;P2;SDS_P1;SDS_P2;PMS_P1;PMS_P2;Temp;Humidity;BMP_temperature;BMP_pressure;BME280_temperature;BME280_humidity;BME280_pressure;Samples;Min_cycle;Max_cycle;Signal;HPM_P1;HPM_P2
2023/04/05 00:02:00;;;;;;;20.87;6.30;;;;;;;1.98;100.00;101971.06;7389937;19;20447;-38
2023/04/05 00:04:33;;;;;;;11.53;5.17;;;;;;;1.92;100.00;101998.47;7392502;19;20455;-38
2023/04/05 00:07:07;;;;;;;9.33;3.93;;;;;;;1.91;100.00;101993.22;7395260;19;20397;-38
2023/04/05 00:09:36;;;;;;;10.67;5.27;;;;;;;1.67;100.00;102016.44;7399079;19;20464;-38
2023/04/05 00:12:09;;;;;;;8.33;3.50;;;;;;;1.80;100.00;102007.47;7397060;19;20443;-37
2023/04/05 00:14:39;;;;;;;12.17;4.63;;;;;;;1.77;100.00;102009.69;7398172;19;20430;-36
2023/04/05 00:17:09;;;;;;;9.17;3.83;;;;;;;1.52;100.00;102004.75;7394044;19;20429;-38
2023/04/05 00:19:41;;;;;;;9.33;4.10;;;;;;;1.25;100.00;101992.00;7396164;19;20402;-37
2023/04/05 00:22:12;;;;;;;10.33;4.60;;;;;;;1.55;100.00;101959.25;7393980;19;21073;-39
2023/04/05 00:24:44;;;;;;;14.47;4.93;;;;;;;1.82;100.00;101948.31;7395796;19;20450;-36
2023/04/05 00:27:16;;;;;;;11.70;4.27;;;;;;;2.00;100.00;101968.66;7393414;19;20404;-36
2023/04/05 00:29:46;;;;;;;9.33;4.10;;;;;;;1.82;100.00;102008.50;7396148;19;20971;-38
2023/04/05 00:32:15;;;;;;;10.97;4.57;;;;;;;1.61;100.00;102034.56;7393554;19;21071;-38
2023/04/05 00:34:45;;;;;;;12.47;4.80;;;;;;;1.88;100.00;101983.63;7396350;19;20411;-38
2023/04/05 00:37:15;;;;;;;11.23;3.90;;;;;;;1.93;100.00;101997.72;7393578;19;20379;-37
2023/04/05 00:39:45;;;;;;;11.87;5.13;;;;;;;1.79;100.00;102013.31;7395617;19;20410;-37
2023/04/05 00:42:17;;;;;;;10.53;4.83;;;;;;;1.94;100.00;101974.06;7391945;19;20447;-37
2023/04/05 00:44:48;;;;;;;9.07;4.30;;;;;;;1.71;100.00;102005.81;7396902;19;20474;-37
2023/04/05 00:47:18;;;;;;;13.07;4.37;;;;;;;1.53;100.00;102004.03;7394747;19;20412;-36
2023/04/05 00:49:47;;;;;;;13.83;5.77;;;;;;;1.47;100.00;101939.06;7395911;19;21215;-37
2023/04/05 00:52:18;;;;;;;9.60;4.90;;;;;;;1.17;100.00;101963.28;7394764;19;20434;-36
2023/04/05 00:54:48;;;;;;;8.37;3.97;;;;;;;0.92;100.00;101949.78;7395295;19;20402;-37
2023/04/05 00:57:20;;;;;;;8.57;4.17;;;;;;;0.73;100.00;101947.03;7393289;19;20436;-37
2023/04/05 00:59:50;;;;;;;13.30;5.00;;;;;;;0.73;100.00;101926.69;7396214;19;20417;-37
2023/04/05 01:02:25;;;;;;;8.70;4.10;;;;;;;0.57;100.00;101935.34;7393397;19;20419;-37
2023/04/05 01:05:01;;;;;;;10.60;4.80;;;;;;;1.08;100.00;101881.03;7396458;19;20421;-36
2023/04/05 01:07:36;;;;;;;9.13;4.40;;;;;;;0.79;100.00;101912.97;7392146;19;20425;-38
2023/04/05 01:10:07;;;;;;;14.20;3.87;;;;;;;0.80;100.00;101911.31;7396028;19;20403;-40
2023/04/05 01:12:40;;;;;;;11.00;4.40;;;;;;;0.75;100.00;101930.28;7389339;19;20396;-36
2023/04/05 01:15:10;;;;;;;11.80;4.93;;;;;;;0.59;100.00;101921.13;7395712;19;20419;-37
2023/04/05 01:17:41;;;;;;;9.50;4.80;;;;;;;0.38;100.00;101904.63;7392389;19;20410;-37
2023/04/05 01:20:14;;;;;;;10.77;4.73;;;;;;;0.35;100.00;101887.44;7396016;19;20431;-36
2023/04/05 01:23:21;;;;;;;13.97;5.80;;;;;;;0.49;100.00;101865.06;7392490;19;20411;-36
2023/04/05 01:26:02;;;;;;;10.23;4.87;;;;;;;0.56;100.00;101867.47;7394271;19;20421;-36
2023/04/05 01:28:56;;;;;;;15.97;6.77;;;;;;;0.75;100.00;101829.56;7391078;19;20808;-37
2023/04/05 01:31:34;;;;;;;15.60;6.67;;;;;;;0.90;100.00;101799.69;7393245;19;20423;-35
2023/04/05 01:34:08;;;;;;;15.70;6.20;;;;;;;0.53;100.00;101811.31;7391866;19;20518;-36
2023/04/05 01:36:42;;;;;;;14.60;6.13;;;;;;;0.54;100.00;101792.78;7394459;19;20427;-38
2023/04/05 01:39:14;;;;;;;16.20;5.43;;;;;;;0.52;100.00;101799.34;7392736;19;20447;-38
2023/04/05 01:41:44;;;;;;;13.20;5.93;;;;;;;0.79;100.00;101800.28;7395186;19;20404;-36
2023/04/05 01:44:14;;;;;;;13.17;4.77;;;;;;;0.39;100.00;101832.78;7391472;19;20459;-37
2023/04/05 01:46:46;;;;;;;12.50;5.30;;;;;;;0.12;100.00;101829.25;7393369;19;20464;-37
2023/04/05 01:49:16;;;;;;;15.97;5.50;;;;;;;-0.04;100.00;101819.19;7391939;19;20426;-37
2023/04/05 01:51:45;;;;;;;15.30;6.80;;;;;;;-0.24;100.00;101790.16;7394951;19;20410;-36
2023/04/05 01:54:15;;;;;;;13.93;7.50;;;;;;;-0.40;100.00;101767.41;7392261;19;20479;-37
2023/04/05 01:56:44;;;;;;;20.57;7.80;;;;;;;-0.49;100.00;101746.16;7394429;19;20424;-37
2023/04/05 01:59:14;;;;;;;31.97;10.57;;;;;;;-0.58;100.00;101746.13;7392590;19;20453;-39
2023/04/05 02:01:49;;;;;;;27.10;12.20;;;;;;;-0.65;100.00;101774.13;7394411;19;20420;-39
2023/04/05 02:04:19;;;;;;;14.65;7.40;;;;;;;-0.42;100.00;101785.00;7391959;19;20443;-36
2023/04/05 02:06:49;;;;;;;15.15;7.25;;;;;;;-0.45;100.00;101801.53;7393703;19;20143;-37
2023/04/05 02:09:19;;;;;;;12.75;6.57;;;;;;;0.01;100.00;101805.34;7392486;19;20194;-36
2023/04/05 02:11:48;;;;;;;17.60;7.13;;;;;;;-0.11;100.00;101802.44;7394137;19;20151;-38
2023/04/05 02:14:18;;;;;;;15.60;7.30;;;;;;;-0.44;100.00;101803.31;7392292;19;20533;-36
2023/04/05 02:16:52;;;;;;;17.93;7.17;;;;;;;-0.40;100.00;101800.38;7393661;19;20139;-36
2023/04/05 02:19:23;;;;;;;17.53;7.07;;;;;;;-0.41;100.00;101796.06;7392888;19;20438;-38
2023/04/05 02:21:52;;;;;;;18.55;7.93;;;;;;;-0.43;100.00;101792.44;7394413;19;20383;-38
2023/04/05 02:24:22;;;;;;;18.00;8.20;;;;;;;-0.58;100.00;101792.66;7390114;19;20198;-36
2023/04/05 02:26:51;;;;;;;21.83;7.15;;;;;;;-0.64;100.00;101799.63;7393194;19;20142;-38
2023/04/05 02:29:21;;;;;;;14.10;5.20;;;;;;;-0.81;100.00;101805.50;7391595;19;20534;-38
2023/04/05 02:31:54;;;;;;;12.90;5.30;;;;;;;-0.89;100.00;101803.78;7393765;19;20408;-38
2023/04/05 02:34:26;;;;;;;13.83;5.47;;;;;;;-0.25;100.00;101808.66;7391161;19;20890;-37
2023/04/05 02:36:56;;;;;;;16.67;6.45;;;;;;;-0.09;100.00;101810.22;7392954;19;20403;-36
2023/04/05 02:39:25;;;;;;;13.55;5.97;;;;;;;-0.33;100.00;101815.47;7391758;19;20182;-37
2023/04/05 02:41:55;;;;;;;15.60;6.28;;;;;;;-0.56;100.00;101815.66;7395901;19;20501;-37
2023/04/05 02:44:25;;;;;;;18.90;5.50;;;;;;;-0.61;100.00;101804.13;7397222;19;20673;-37
2023/04/05 02:46:57;;;;;;;10.88;5.40;;;;;;;-0.58;100.00;101799.38;7399562;19;20155;-37
2023/04/05 02:49:27;;;;;;;12.15;6.00;;;;;;;-0.40;100.00;101805.44;7399305;19;20192;-38
2023/04/05 02:51:57;;;;;;;12.40;5.43;;;;;;;-0.90;100.00;101792.75;7399236;19;20154;-36
2023/04/05 02:54:27;;;;;;;16.70;6.95;;;;;;;-0.80;100.00;101799.69;7399459;19;20190;-36
2023/04/05 02:56:57;;;;;;;13.50;5.50;;;;;;;-0.44;100.00;101795.72;7398879;19;20139;-38
2023/04/05 02:59:26;;;;;;;15.93;5.95;;;;;;;0.03;100.00;101805.47;7399566;19;20197;-38
2023/04/05 03:01:59;;;;;;;11.95;5.50;;;;;;;0.02;100.00;101794.44;7398561;19;20150;-36
2023/04/05 03:04:33;;;;;;;10.80;5.35;;;;;;;-0.03;100.00;101800.69;7399114;19;20189;-36
2023/04/05 03:07:03;;;;;;;13.18;5.20;;;;;;;0.30;100.00;101797.19;7398636;19;20150;-37
2023/04/05 03:09:37;;;;;;;12.55;5.97;;;;;;;0.24;100.00;101792.41;7401135;19;20190;-37
2023/04/05 03:12:07;;;;;;;15.52;7.53;;;;;;;0.33;100.00;101800.06;7398515;19;20245;-36
2023/04/05 03:14:37;;;;;;;11.50;5.40;;;;;;;-0.02;100.00;101792.31;7399668;19;20218;-37
2023/04/05 03:17:09;;;;;;;9.27;4.72;;;;;;;-0.41;100.00;101807.06;7399124;19;20164;-39
2023/04/05 03:19:39;;;;;;;10.93;5.18;;;;;;;-0.64;100.00;101811.41;7398797;19;20190;-39
2023/04/05 03:22:09;;;;;;;12.80;5.20;;;;;;;-0.69;100.00;101811.84;7397168;19;20186;-35
2023/04/05 03:24:41;;;;;;;11.25;5.75;;;;;;;-0.64;100.00;101806.34;7397721;19;20142;-38
2023/04/05 03:27:12;;;;;;;13.95;4.97;;;;;;;-0.57;100.00;101808.75;7394932;19;20149;-39
2023/04/05 03:29:41;;;;;;;12.73;4.88;;;;;;;-0.51;100.00;101813.59;7397946;19;20142;-36
2023/04/05 03:32:14;;;;;;;13.63;5.38;;;;;;;-0.12;100.00;101810.81;7395182;19;20186;-36
2023/04/05 03:34:44;;;;;;;11.15;4.80;;;;;;;0.19;100.00;101810.44;7398175;19;20143;-37
2023/04/05 03:37:13;;;;;;;9.52;4.43;;;;;;;-0.27;100.00;101822.81;7396501;19;20179;-37
2023/04/05 03:39:43;;;;;;;10.90;4.80;;;;;;;-0.59;100.00;101821.31;7397600;19;20139;-36
2023/04/05 03:42:14;;;;;;;9.75;4.22;;;;;;;-0.73;100.00;101813.88;7398191;19;20841;-36
2023/04/05 03:44:44;;;;;;;13.27;4.50;;;;;;;-0.82;100.00;101811.31;7398270;19;20141;-37
2023/04/05 03:47:16;;;;;;;11.27;4.37;;;;;;;-0.90;100.00;101807.06;7395626;19;20536;-36
2023/04/05 03:49:46;;;;;;;15.18;6.28;;;;;;;-0.94;100.00;101794.81;7397712;19;20411;-38
2023/04/05 03:52:15;;;;;;;11.90;4.57;;;;;;;-0.80;100.00;101807.28;7396535;19;20186;-37
2023/04/05 03:54:45;;;;;;;9.70;4.25;;;;;;;-0.69;100.00;101806.78;7396237;19;20151;-37
2023/04/05 03:57:14;;;;;;;14.55;4.70;;;;;;;-0.77;100.00;101815.19;7394918;19;20155;-37
2023/04/05 03:59:44;;;;;;;9.65;4.38;;;;;;;-0.83;100.00;101812.00;7399334;19;20513;-39
2023/04/05 04:02:17;;;;;;;9.45;4.55;;;;;;;-0.82;100.00;101812.19;7397844;19;20661;-36
2023/04/05 04:04:46;;;;;;;13.10;5.30;;;;;;;-0.71;100.00;101810.75;7396635;19;20623;-38
2023/04/05 04:07:16;;;;;;;42.55;19.60;;;;;;;0.80;100.00;101791.88;7395102;19;20146;-38
2023/04/05 04:09:46;;;;;;;13.10;5.40;;;;;;;1.07;100.00;101823.28;7399628;19;20574;-37
2023/04/05 04:12:15;;;;;;;37.43;17.10;;;;;;;1.07;100.00;101823.28;7394922;19;20821;-38
2023/04/05 04:14:45;;;;;;;12.00;6.67;;;;;;;0.92;100.00;101822.72;7395756;19;20415;-36
2023/04/05 04:17:28;;;;;;;23.50;12.00;;;;;;;0.64;100.00;101808.19;7395301;19;20491;-39
2023/04/05 04:19:58;;;;;;;23.77;6.20;;;;;;;0.35;100.00;101816.34;7397001;19;20418;-38
2023/04/05 04:22:31;;;;;;;13.47;6.40;;;;;;;1.20;100.00;101800.88;7393709;19;20431;-38
2023/04/05 04:25:03;;;;;;;16.33;6.00;;;;;;;1.50;100.00;101812.91;7396314;19;20399;-36
2023/04/05 04:27:35;;;;;;;17.60;6.83;;;;;;;1.52;100.00;101813.94;7393025;19;20432;-37
2023/04/05 04:30:06;;;;;;;17.20;7.60;;;;;;;1.54;100.00;101797.19;7397279;19;20398;-36
2023/04/05 04:32:58;;;;;;;34.50;18.20;;;;;;;1.34;100.00;101808.91;7392593;19;20414;-36
2023/04/05 04:35:29;;;;;;;21.13;7.30;;;;;;;0.37;100.00;101808.88;7397029;19;20379;-40
2023/04/05 04:38:00;;;;;;;108.83;44.93;;;;;;;0.92;100.00;101782.94;7393539;19;20399;-39
2023/04/05 04:40:31;;;;;;;59.70;26.60;;;;;;;1.34;100.00;101783.50;7396285;19;20395;-41
2023/04/05 04:43:01;;;;;;;12.07;5.80;;;;;;;0.43;100.00;101809.50;7394108;19;20441;-36
2023/04/05 04:45:33;;;;;;;24.10;8.37;;;;;;;-0.04;100.00;101783.66;7395543;19;20410;-37
2023/04/05 04:48:06;;;;;;;19.17;8.70;;;;;;;0.10;100.00;101755.50;7394620;19;20484;-38
2023/04/05 04:50:38;;;;;;;17.80;6.47;;;;;;;0.00;100.00;101755.34;7395818;19;20387;-36
2023/04/05 04:53:07;;;;;;;12.90;5.30;;;;;;;-0.33;100.00;101743.56;7392648;19;20386;-36
2023/04/05 04:55:37;;;;;;;22.00;8.10;;;;;;;-0.80;100.00;101728.72;7395284;19;20408;-36
2023/04/05 04:58:09;;;;;;;16.87;7.50;;;;;;;-0.51;100.00;101742.59;7391014;19;20835;-38
2023/04/05 05:00:40;;;;;;;17.63;6.83;;;;;;;-0.28;100.00;101747.47;7395996;19;20432;-39
2023/04/05 05:03:13;;;;;;;19.23;8.60;;;;;;;-0.20;100.00;101766.00;7393237;19;20425;-40
2023/04/05 05:05:46;;;;;;;19.70;7.77;;;;;;;-0.34;100.00;101752.81;7392901;19;20407;-38
2023/04/05 05:08:16;;;;;;;17.10;7.00;;;;;;;-0.71;100.00;101760.06;7394233;19;20402;-37
2023/04/05 05:10:52;;;;;;;14.35;6.95;;;;;;;-0.82;100.00;101760.63;7396082;19;20404;-37
2023/04/05 05:13:22;;;;;;;12.77;6.53;;;;;;;-0.79;100.00;101763.44;7391438;19;20202;-38
2023/04/05 05:15:51;;;;;;;16.02;7.07;;;;;;;-0.64;100.00;101761.59;7395179;19;20428;-41
2023/04/05 05:18:24;;;;;;;15.43;7.65;;;;;;;-0.39;100.00;101766.66;7393514;19;20197;-36
2023/04/05 05:20:53;;;;;;;17.55;7.40;;;;;;;-0.19;100.00;101767.78;7395650;19;20476;-38
2023/04/05 05:23:23;;;;;;;16.83;7.30;;;;;;;-0.24;100.00;101766.41;7393688;19;20209;-39
2023/04/05 05:25:59;;;;;;;13.20;6.50;;;;;;;0.02;100.00;101774.13;7394477;19;20147;-37
2023/04/05 05:28:29;;;;;;;13.00;6.37;;;;;;;-0.01;100.00;101774.72;7391062;19;20818;-38
2023/04/05 05:30:58;;;;;;;17.83;7.50;;;;;;;-0.02;100.00;101778.00;7394942;19;20403;-38
2023/04/05 05:33:31;;;;;;;20.37;7.10;;;;;;;-0.14;100.00;101777.66;7390703;19;20439;-38
2023/04/05 05:36:00;;;;;;;18.07;7.50;;;;;;;-0.15;100.00;101765.72;7395001;19;20395;-39
2023/04/05 05:38:30;;;;;;;20.70;8.17;;;;;;;-0.16;100.00;101768.09;7391633;19;20435;-37
2023/04/05 05:41:00;;;;;;;14.87;7.43;;;;;;;0.07;100.00;101774.59;7397079;19;20383;-36
2023/04/05 05:43:30;;;;;;;16.67;7.23;;;;;;;0.01;100.00;101767.28;7391528;19;20435;-39
2023/04/05 05:46:02;;;;;;;22.57;9.70;;;;;;;-0.11;100.00;101758.44;7394788;19;20407;-36
2023/04/05 05:48:35;;;;;;;26.60;7.77;;;;;;;-0.22;100.00;101748.09;7391880;19;20471;-40
2023/04/05 05:51:08;;;;;;;13.55;7.15;;;;;;;-0.36;100.00;101743.25;7394854;19;20412;-37
2023/04/05 05:53:38;;;;;;;15.82;7.40;;;;;;;-0.24;100.00;101744.50;7390555;19;20580;-37
2023/04/05 05:56:08;;;;;;;17.48;7.07;;;;;;;-0.09;100.00;101754.41;7394592;19;20147;-39
2023/04/05 05:58:38;;;;;;;17.58;7.95;;;;;;;0.19;100.00;101762.22;7388412;19;20190;-37
2023/04/05 06:01:10;;;;;;;19.07;7.50;;;;;;;0.13;100.00;101748.19;7394923;19;20635;-40
2023/04/05 06:03:43;;;;;;;15.70;8.00;;;;;;;-0.01;100.00;101739.19;7387050;19;20418;-38
2023/04/05 06:06:12;;;;;;;22.73;9.27;;;;;;;-0.04;100.00;101738.00;7395719;19;20141;-38
2023/04/05 06:08:42;;;;;;;21.05;8.20;;;;;;;0.34;100.00;101753.59;7390668;19;20570;-39
2023/04/05 06:11:20;;;;;;;12.85;6.32;;;;;;;0.54;100.00;101752.13;7394005;19;20143;-38
2023/04/05 06:13:51;;;;;;;15.32;6.55;;;;;;;0.50;100.00;101744.94;7390156;19;20206;-38
2023/04/05 06:16:20;;;;;;;14.60;6.22;;;;;;;0.57;100.00;101742.28;7393396;19;20146;-37
2023/04/05 06:18:54;;;;;;;14.80;5.53;;;;;;;0.75;100.00;101737.19;7391011;19;20190;-36
2023/04/05 06:21:25;;;;;;;12.73;6.17;;;;;;;0.77;100.00;101738.25;7393929;19;20403;-38
2023/04/05 06:23:55;;;;;;;10.60;5.77;;;;;;;0.88;100.00;101750.31;7389796;19;20447;-36
2023/04/05 06:26:27;;;;;;;12.00;5.23;;;;;;;0.91;100.00;101758.25;7392661;19;20390;-36
2023/04/05 06:28:57;;;;;;;13.00;5.50;;;;;;;0.94;100.00;101756.00;7390671;19;20435;-38
2023/04/05 06:31:33;;;;;;;13.50;5.43;;;;;;;1.03;100.00;101753.44;7392904;19;20387;-38
2023/04/05 06:34:05;;;;;;;12.47;5.43;;;;;;;1.17;100.00;101762.41;7389687;19;20489;-36
2023/04/05 06:36:35;;;;;;;14.67;7.13;;;;;;;1.29;100.00;101765.22;7391665;19;20406;-36
2023/04/05 06:39:06;;;;;;;12.47;5.80;;;;;;;1.38;100.00;101780.47;7390351;19;20452;-39
2023/04/05 06:41:35;;;;;;;10.90;5.60;;;;;;;1.47;100.00;101788.06;7392528;19;20404;-37
2023/04/05 06:44:05;;;;;;;10.83;5.70;;;;;;;1.60;100.00;101802.88;7391494;19;20925;-38
2023/04/05 06:46:34;;;;;;;16.43;6.27;;;;;;;1.64;100.00;101771.84;7392006;19;20599;-37
2023/04/05 06:49:07;;;;;;;15.67;6.20;;;;;;;1.77;100.00;101771.38;7389665;19;20993;-38
2023/04/05 06:51:36;;;;;;;13.27;5.27;;;;;;;1.73;100.00;101777.81;7393997;19;20387;-36
2023/04/05 06:54:06;;;;;;;12.13;5.10;;;;;;;1.94;100.00;101784.78;7390173;19;20422;-37
2023/04/05 06:56:35;;;;;;;18.00;7.77;;;;;;;1.95;100.00;101792.53;7391318;19;20408;-36
2023/04/05 06:59:05;;;;;;;13.83;5.80;;;;;;;2.02;100.00;101792.38;7390322;19;20464;-38
2023/04/05 07:01:34;;;;;;;14.10;6.63;;;;;;;2.13;100.00;101788.28;7392264;19;20958;-37
2023/04/05 07:04:07;;;;;;;12.80;4.67;;;;;;;2.21;100.00;101799.16;7389037;19;20506;-37
2023/04/05 07:06:37;;;;;;;11.90;4.87;;;;;;;2.25;100.00;101813.09;7391792;19;20415;-38
2023/04/05 07:09:07;;;;;;;9.47;4.63;;;;;;;2.54;100.00;101836.16;7389587;19;20430;-38
2023/04/05 07:11:38;;;;;;;9.33;4.07;;;;;;;2.89;100.00;101847.78;7392843;19;20771;-36
2023/04/05 07:14:08;;;;;;;11.03;4.87;;;;;;;3.12;100.00;101836.16;7389410;19;20821;-38
2023/04/05 07:16:38;;;;;;;16.07;5.47;;;;;;;3.09;100.00;101844.44;7391059;19;20775;-38
2023/04/05 07:19:10;;;;;;;9.07;4.10;;;;;;;3.33;100.00;101867.78;7389567;19;20791;-35
2023/04/05 07:21:40;;;;;;;7.27;3.20;;;;;;;3.49;100.00;101895.56;7391669;19;20404;-35
2023/04/05 07:24:10;;;;;;;10.97;4.10;;;;;;;3.52;100.00;101917.91;7389321;19;20434;-39
2023/04/05 07:26:39;;;;;;;9.20;3.70;;;;;;;3.67;100.00;101936.25;7390438;19;20538;-38
2023/04/05 07:29:09;;;;;;;11.00;4.67;;;;;;;3.84;100.00;101947.94;7392592;19;20447;-38
2023/04/05 07:31:40;;;;;;;9.77;4.30;;;;;;;3.90;100.00;101971.47;7398618;19;20391;-37
2023/04/05 07:34:12;;;;;;;7.63;3.23;;;;;;;3.76;100.00;101983.00;7394406;19;20443;-33
2023/04/05 07:36:42;;;;;;;6.67;3.33;;;;;;;3.75;100.00;101995.66;7397237;19;20411;-37
2023/04/05 07:39:11;;;;;;;12.90;5.50;;;;;;;3.94;100.00;101987.09;7393593;19;20446;-38
2023/04/05 07:41:41;;;;;;;13.77;3.67;;;;;;;3.89;100.00;102005.44;7397196;19;20458;-37
2023/04/05 07:44:12;;;;;;;9.50;3.70;;;;;;;3.97;100.00;102015.44;7396287;19;20453;-38
2023/04/05 07:46:43;;;;;;;9.70;3.60;;;;;;;3.96;100.00;102021.31;7397539;19;20435;-35
2023/04/05 07:49:19;;;;;;;7.63;3.40;;;;;;;4.23;100.00;102035.63;7395125;19;20464;-36
2023/04/05 07:51:49;;;;;;;7.63;4.00;;;;;;;4.10;100.00;102035.31;7397244;19;20796;-34
2023/04/05 07:54:19;;;;;;;11.97;4.17;;;;;;;4.17;100.00;102027.41;7396737;19;20426;-36
2023/04/05 07:56:48;;;;;;;9.57;3.50;;;;;;;4.15;100.00;102036.63;7397259;19;20452;-35
2023/04/05 07:59:18;;;;;;;7.37;3.27;;;;;;;4.16;100.00;102041.84;7395863;19;20459;-35
2023/04/05 08:01:48;;;;;;;11.20;3.37;;;;;;;4.19;100.00;102049.78;7396740;19;20391;-35
2023/04/05 08:04:26;;;;;;;6.47;3.03;;;;;;;4.30;100.00;102054.94;7396222;19;20443;-35
2023/04/05 08:06:56;;;;;;;9.47;3.90;;;;;;;4.37;100.00;102044.50;7397709;19;20422;-36
2023/04/05 08:09:25;;;;;;;8.83;4.53;;;;;;;4.41;100.00;102038.00;7394264;19;20451;-39
2023/04/05 08:11:56;;;;;;;8.67;3.57;;;;;;;4.41;100.00;102053.34;7396609;19;20411;-37
2023/04/05 08:14:25;;;;;;;7.97;3.33;;;;;;;4.42;100.00;102044.91;7395659;19;20439;-35
2023/04/05 08:16:55;;;;;;;9.00;4.20;;;;;;;4.42;100.00;102035.56;7397851;19;20419;-36
2023/04/05 08:19:27;;;;;;;10.60;4.70;;;;;;;4.57;100.00;102023.22;7395822;19;20463;-36
2023/04/05 08:21:57;;;;;;;8.00;3.20;;;;;;;4.58;100.00;102032.69;7396010;19;20391;-36
2023/04/05 08:24:26;;;;;;;9.30;2.90;;;;;;;4.57;100.00;102042.78;7396292;19;20443;-36
2023/04/05 08:26:56;;;;;;;7.07;2.80;;;;;;;4.57;100.00;102042.78;7396891;19;20410;-35
2023/04/05 08:29:25;;;;;;;10.10;3.43;;;;;;;4.56;100.00;102043.56;7394119;19;20473;-37
2023/04/05 08:31:59;;;;;;;10.00;3.77;;;;;;;4.75;100.00;102040.00;7396903;19;20444;-36
2023/04/05 08:34:31;;;;;;;10.87;4.57;;;;;;;5.04;100.00;102036.50;7394811;19;20466;-36
2023/04/05 08:37:01;;;;;;;16.07;7.60;;;;;;;5.90;100.00;102036.72;7396490;19;20850;-37
2023/04/05 08:39:33;;;;;;;14.70;6.13;;;;;;;5.85;100.00;102063.63;7393743;19;20511;-35
2023/04/05 08:42:10;;;;;;;7.00;3.53;;;;;;;5.34;97.57;102076.56;7396382;19;20411;-37
2023/04/05 08:44:41;;;;;;;13.33;5.43;;;;;;;5.09;95.80;102081.28;7396846;19;20454;-36
2023/04/05 08:47:14;;;;;;;8.07;3.60;;;;;;;4.98;95.32;102071.00;7394340;19;20435;-36
2023/04/05 08:49:47;;;;;;;7.30;3.63;;;;;;;5.09;94.55;102084.72;7395422;19;20444;-37
2023/04/05 08:52:17;;;;;;;9.43;3.80;;;;;;;5.36;97.23;102075.06;7395706;19;21006;-36
2023/04/05 08:54:46;;;;;;;27.57;13.33;;;;;;;5.39;94.96;102080.41;7395646;19;20411;-36
2023/04/05 08:57:20;;;;;;;12.97;3.97;;;;;;;5.42;94.66;102082.34;7392901;19;20411;-35
2023/04/05 08:59:49;;;;;;;11.00;4.13;;;;;;;5.56;95.29;102077.47;7395174;19;20415;-36
2023/04/05 09:02:21;;;;;;;18.17;4.40;;;;;;;5.43;95.85;102070.44;7393738;19;20423;-35
2023/04/05 09:04:55;;;;;;;9.93;4.10;;;;;;;5.52;98.65;102068.63;7395108;19;20420;-36
2023/04/05 09:07:25;;;;;;;9.33;4.20;;;;;;;5.60;100.00;102054.84;7394322;19;20411;-35
2023/04/05 09:09:55;;;;;;;12.00;4.53;;;;;;;5.57;100.00;102056.22;7395524;19;20422;-36
2023/04/05 09:12:26;;;;;;;11.93;4.03;;;;;;;6.00;100.00;102021.31;7394161;19;20464;-37
2023/04/05 09:14:56;;;;;;;60.03;27.77;;;;;;;6.05;100.00;102027.75;7395238;19;20399;-35
2023/04/05 09:17:26;;;;;;;10.07;3.40;;;;;;;5.84;100.00;102059.28;7394693;19;20415;-37
2023/04/05 09:19:58;;;;;;;11.93;3.90;;;;;;;5.78;100.00;102054.53;7395184;19;20411;-34
2023/04/05 09:22:27;;;;;;;117.23;50.63;;;;;;;6.41;100.00;102021.97;7390327;19;20415;-37
2023/04/05 09:24:57;;;;;;;16.30;7.13;;;;;;;7.03;100.00;102026.75;7395325;19;20411;-38
2023/04/05 09:27:27;;;;;;;36.27;14.10;;;;;;;6.74;100.00;102057.06;7392404;19;20500;-38
2023/04/05 09:29:56;;;;;;;17.30;6.90;;;;;;;6.51;100.00;102062.06;7394883;19;20426;-37
2023/04/05 09:32:28;;;;;;;15.80;6.60;;;;;;;6.41;100.00;102060.44;7393137;19;20456;-37
2023/04/05 09:35:03;;;;;;;14.63;6.80;;;;;;;6.45;100.00;102049.63;7395211;19;20412;-37
2023/04/05 09:37:33;;;;;;;12.83;3.20;;;;;;;6.06;100.00;102044.91;7391885;19;20475;-36
2023/04/05 09:40:05;;;;;;;11.87;5.10;;;;;;;6.12;100.00;102043.59;7395158;19;20415;-36
2023/04/05 09:42:45;;;;;;;11.60;5.23;;;;;;;6.45;100.00;102041.94;7390258;19;20407;-35
2023/04/05 09:45:15;;;;;;;7.10;3.23;;;;;;;6.43;100.00;102043.50;7394417;19;20415;-36
2023/04/05 09:47:44;;;;;;;9.60;4.23;;;;;;;6.62;100.00;102049.28;7391479;19;20419;-35
2023/04/05 09:50:24;;;;;;;9.70;3.53;;;;;;;6.67;100.00;102048.78;7395001;19;20408;-36
2023/04/05 09:53:07;;;;;;;65.90;24.53;;;;;;;6.59;100.00;102043.03;7389256;19;20411;-36
2023/04/05 09:55:37;;;;;;;8.97;3.70;;;;;;;6.43;100.00;102033.25;7391288;19;20411;-36
2023/04/05 09:58:06;;;;;;;11.97;3.90;;;;;;;6.79;100.00;102049.72;7391065;19;21245;-37
2023/04/05 10:00:38;;;;;;;12.30;4.13;;;;;;;7.18;100.00;102039.84;7393937;19;20419;-36
2023/04/05 10:03:08;;;;;;;35.67;12.40;;;;;;;6.77;100.00;102028.16;7390674;19;20423;-36
2023/04/05 10:05:41;;;;;;;9.80;4.23;;;;;;;7.09;100.00;102034.91;7393682;19;20794;-36
2023/04/05 10:08:10;;;;;;;8.67;3.93;;;;;;;7.46;100.00;102047.06;7390412;19;20411;-36
2023/04/05 10:10:48;;;;;;;13.50;5.17;;;;;;;7.66;98.89;102052.81;7393485;19;20411;-37
2023/04/05 10:13:19;;;;;;;9.70;4.47;;;;;;;7.63;98.06;102060.28;7389776;19;20442;-41
2023/04/05 10:15:50;;;;;;;9.83;3.60;;;;;;;7.52;96.05;102064.59;7392208;19;20412;-38
2023/04/05 10:18:23;;;;;;;21.37;8.00;;;;;;;7.23;91.84;102068.44;7390120;19;20963;-37
2023/04/05 10:20:55;;;;;;;70.00;30.57;;;;;;;7.00;96.04;102055.63;7392623;19;20402;-39
2023/04/05 10:23:30;;;;;;;12.20;5.23;;;;;;;6.91;93.36;102056.59;7389768;19;20435;-37
2023/04/05 10:26:09;;;;;;;14.60;7.30;;;;;;;6.98;93.83;102046.03;7391931;19;20406;-37
2023/04/05 10:28:42;;;;;;;28.17;10.80;;;;;;;6.99;94.45;102048.69;7388668;19;20477;-36
2023/04/05 10:31:13;;;;;;;49.83;18.40;;;;;;;7.02;95.87;102036.09;7392594;19;20761;-37
2023/04/05 10:34:07;;;;;;;7.37;3.47;;;;;;;7.01;95.28;102036.88;7391334;19;20441;-39
2023/04/05 10:36:47;;;;;;;12.90;4.93;;;;;;;7.18;96.54;102034.69;7391915;19;20415;-37
2023/04/05 10:39:19;;;;;;;9.13;4.30;;;;;;;7.06;96.44;102026.97;7391347;19;20455;-39
2023/04/05 10:41:50;;;;;;;9.43;4.97;;;;;;;7.15;96.49;102025.13;7393013;19;20488;-36
2023/04/05 10:44:20;;;;;;;10.40;4.87;;;;;;;7.04;96.69;102023.41;7390530;19;20448;-36
2023/04/05 10:46:57;;;;;;;6.90;3.60;;;;;;;7.09;95.65;102019.53;7392068;19;20402;-39
2023/04/05 10:49:34;;;;;;;71.67;30.47;;;;;;;7.11;98.57;102007.69;7389840;19;20479;-41
2023/04/05 10:52:08;;;;;;;11.23;4.83;;;;;;;7.34;98.07;102012.78;7390590;19;20416;-36
2023/04/05 10:54:38;;;;;;;12.20;5.50;;;;;;;7.47;98.49;102009.44;7389953;19;20443;-37
2023/04/05 10:57:09;;;;;;;15.63;5.80;;;;;;;7.30;97.33;102009.94;7388706;19;20395;-35
2023/04/05 10:59:43;;;;;;;19.47;6.60;;;;;;;7.48;97.74;102008.66;7392017;19;20438;-37
2023/04/05 11:02:13;;;;;;;8.37;4.00;;;;;;;7.39;95.86;102019.16;7389537;19;20443;-37
2023/04/05 11:04:43;;;;;;;18.63;6.33;;;;;;;7.31;95.69;102010.88;7397981;19;20957;-37
2023/04/05 11:07:17;;;;;;;8.43;3.40;;;;;;;7.22;93.45;102021.31;7393882;19;20980;-36
2023/04/05 11:09:55;;;;;;;47.33;18.27;;;;;;;7.62;92.86;102019.94;7398683;19;20400;-40
2023/04/05 11:12:54;;;;;;;10.33;3.43;;;;;;;7.96;92.21;102025.88;7396316;19;20427;-37
2023/04/05 11:15:31;;;;;;;16.97;7.27;;;;;;;7.82;94.05;102018.84;7402458;19;20435;-39
2023/04/05 11:18:08;;;;;;;14.73;6.20;;;;;;;7.76;92.53;102020.97;7396932;19;20428;-39
2023/04/05 11:20:46;;;;;;;20.70;8.60;;;;;;;7.79;93.47;102010.94;7398094;19;20403;-39
2023/04/05 11:23:20;;;;;;;13.77;5.20;;;;;;;7.72;93.32;102013.81;7395518;19;20402;-37
2023/04/05 11:25:53;;;;;;;13.43;6.20;;;;;;;7.63;93.57;102002.09;7397684;19;20491;-36
2023/04/05 11:28:27;;;;;;;10.53;4.53;;;;;;;7.75;93.11;102003.78;7395912;19;20433;-41
2023/04/05 11:30:58;;;;;;;8.43;3.50;;;;;;;7.60;93.08;101993.25;7398012;19;20410;-37
2023/04/05 11:33:41;;;;;;;5.67;3.00;;;;;;;7.63;92.73;101994.38;7395540;19;20423;-36
2023/04/05 11:36:11;;;;;;;17.43;6.53;;;;;;;7.57;91.82;101994.84;7397369;19;20939;-37
2023/04/05 11:38:45;;;;;;;5.77;3.00;;;;;;;7.67;91.95;101991.28;7394954;19;20559;-38